Ozone, Arkansas
Current Conditions -  °F | °C
As of 11:53 PM on Sunday 21 Dec 2014 (Local Time) from KRUE Reporting Station
Overcast Overcast  
Wind Chill: 46°   Ceiling: 3500
Heat Index: 48°   Visibility: 10mi
Dew Point: 38°   Wind: 5mph
Humidity: 68%   Direction: NA
Pressure: 29.84"   Gusts: NA
Location:  35.64°N, 93.44°W
Report Text: KRUE 220553Z AUTO VRB04KT 10SM OVC035 09/03 A2984 RMK AO2 SLP099 T00890033 10094 20083 401000044 56017
Loading
Personal Weather Stations






























Interactive Weather Map New forecast layout! Learn more

10-Day Weather Forecast

Advertisements
Track Severe Weather on mobile